Terminal Aerodrome Forecast
Issued by NWS

Home | Current Version | Previous Version | Text Only | Print | Product List | Glossary On
Versions: 1 2 3 4 5 6 7 8 9 10 11 12 13 14 15 16 17 18
000
FTUS43 KIND 201700
TAFHUF
TAF
KHUF 201720Z 2018/2118 26010G18KT P6SM BKN050
     FM202100 29010KT P6SM BKN035
     FM210200 31004KT P6SM SCT035
     FM210900 33004KT 4SM BR BKN250
     FM211500 34010KT P6SM BKN040=

USA.gov is the U.S. government's official web portal to all federal, state and local government web resources and services.